Time;durP1;ratioP1;P1;durP2;ratioP2;P2;SDS_P1;SDS_P2;PMS_P1;PMS_P2;Temp;Humidity;BMP_temperature;BMP_pressure;BME280_temperature;BME280_humidity;BME280_pressure;Samples;Min_cycle;Max_cycle;Signal;HPM_P1;HPM_P2
2022/10/01 00:02:07;;;;;;;48.70;44.00;;;;;;;10.60;100.00;97653.15;105246;1287;25232;-87
2022/10/01 00:04:38;;;;;;;49.30;44.80;;;;;;;10.60;100.00;97652.23;105230;1287;22664;-86
2022/10/01 00:07:09;;;;;;;54.20;48.90;;;;;;;10.61;100.00;97656.42;105145;1287;22550;-87
2022/10/01 00:09:37;;;;;;;48.40;43.70;;;;;;;10.61;100.00;97652.96;105327;1287;25335;-85
2022/10/01 00:12:05;;;;;;;51.00;46.20;;;;;;;10.61;100.00;97651.79;105312;1287;22588;-86
2022/10/01 00:14:34;;;;;;;54.00;49.00;;;;;;;10.59;100.00;97646.55;105311;1287;22939;-87
2022/10/01 00:17:02;;;;;;;57.20;51.70;;;;;;;10.58;100.00;97636.77;105268;1287;22797;-86
2022/10/01 00:19:30;;;;;;;55.70;50.30;;;;;;;10.55;100.00;97631.45;105311;1288;25322;-87
2022/10/01 00:21:58;;;;;;;54.80;49.60;;;;;;;10.53;100.00;97635.54;105233;1287;24226;-87
2022/10/01 00:24:26;;;;;;;52.50;47.10;;;;;;;10.51;100.00;97640.16;105214;1287;22563;-87
2022/10/01 00:26:53;;;;;;;55.90;50.30;;;;;;;10.49;100.00;97639.71;105227;1287;24406;-87
2022/10/01 00:29:21;;;;;;;57.70;52.30;;;;;;;10.50;100.00;97642.29;105190;1287;22830;-87
2022/10/01 00:31:49;;;;;;;59.40;53.90;;;;;;;10.52;100.00;97644.98;105198;1287;24132;-86
2022/10/01 00:34:17;;;;;;;58.60;53.10;;;;;;;10.54;100.00;97647.69;105197;1286;24459;-87
2022/10/01 00:36:45;;;;;;;60.20;53.90;;;;;;;10.52;100.00;97647.63;105266;1287;22710;-85
2022/10/01 00:39:13;;;;;;;61.10;55.20;;;;;;;10.50;100.00;97649.45;105281;1287;22890;-86
2022/10/01 00:41:41;;;;;;;60.00;54.30;;;;;;;10.45;100.00;97652.36;105306;1287;22767;-86
2022/10/01 00:44:36;;;;;;;59.70;53.70;;;;;;;10.42;100.00;97654.95;105324;1287;24223;-87
2022/10/01 00:47:30;;;;;;;55.00;49.80;;;;;;;10.42;100.00;97657.44;105245;1287;22666;-87
2022/10/01 00:50:27;;;;;;;54.50;49.50;;;;;;;10.44;100.00;97653.63;105275;1287;22549;-83
2022/10/01 00:53:00;;;;;;;56.40;50.60;;;;;;;10.45;100.00;97650.08;105330;1287;24212;-86
2022/10/01 00:55:33;;;;;;;57.10;51.70;;;;;;;10.49;100.00;97647.91;105345;1287;25421;-85
2022/10/01 00:58:03;;;;;;;50.50;45.70;;;;;;;10.51;100.00;97651.20;105000;1288;22578;-86
2022/10/01 01:00:31;;;;;;;56.00;50.50;;;;;;;10.52;100.00;97645.79;105283;1287;25533;-85
2022/10/01 01:02:59;;;;;;;55.70;50.50;;;;;;;10.52;100.00;97644.84;105226;1287;22564;-88
2022/10/01 01:05:27;;;;;;;56.10;50.80;;;;;;;10.50;100.00;97654.73;105244;1287;25562;-82
2022/10/01 01:07:57;;;;;;;59.60;54.00;;;;;;;10.45;100.00;97650.04;105281;1288;25331;-87
2022/10/01 01:10:49;;;;;;;59.40;53.50;;;;;;;10.43;100.00;97651.21;105200;1287;22641;-87
2022/10/01 01:13:33;;;;;;;55.60;50.10;;;;;;;10.43;100.00;97647.98;105222;1287;22689;-86
2022/10/01 01:16:14;;;;;;;52.30;47.10;;;;;;;10.41;100.00;97644.80;105276;1287;26640;-87
2022/10/01 01:18:51;;;;;;;48.10;43.40;;;;;;;10.38;100.00;97647.08;105297;1287;22602;-87
2022/10/01 01:21:35;;;;;;;50.70;45.80;;;;;;;10.36;100.00;97648.20;105258;1287;24453;-85
2022/10/01 01:24:38;;;;;;;49.00;44.60;;;;;;;10.29;100.00;97653.20;105232;1288;22569;-87
2022/10/01 01:27:45;;;;;;;47.90;43.10;;;;;;;10.26;100.00;97657.95;105143;1287;22718;-86
2022/10/01 01:30:15;;;;;;;49.70;44.90;;;;;;;10.25;100.00;97657.45;104777;1287;22773;-86
2022/10/01 01:32:54;;;;;;;50.60;45.80;;;;;;;10.18;100.00;97655.08;105277;1288;25425;-87
2022/10/01 01:35:36;;;;;;;51.50;46.60;;;;;;;10.14;100.00;97651.02;105202;1287;25308;-85
2022/10/01 01:38:10;;;;;;;53.50;47.50;;;;;;;10.10;100.00;97644.41;105326;1287;22724;-87
2022/10/01 01:40:41;;;;;;;54.00;48.70;;;;;;;10.09;100.00;97645.99;105297;1287;24355;-85
2022/10/01 01:43:19;;;;;;;52.60;47.50;;;;;;;10.10;100.00;97649.21;105293;1287;22580;-87
2022/10/01 01:45:49;;;;;;;57.20;51.30;;;;;;;10.09;100.00;97648.05;105018;1287;22900;-83
2022/10/01 01:48:17;;;;;;;57.60;51.90;;;;;;;10.09;100.00;97645.89;105207;1288;25301;-86
2022/10/01 01:50:51;;;;;;;58.50;52.70;;;;;;;10.10;100.00;97650.67;105154;1287;26054;-87
2022/10/01 01:53:20;;;;;;;55.30;50.20;;;;;;;10.13;100.00;97655.02;105152;1287;22707;-86
2022/10/01 01:55:49;;;;;;;54.90;49.70;;;;;;;10.11;100.00;97654.63;105182;1287;24278;-87
2022/10/01 01:58:19;;;;;;;52.40;47.40;;;;;;;10.08;100.00;97657.16;105163;1287;22783;-87
2022/10/01 02:00:53;;;;;;;53.20;48.00;;;;;;;10.03;100.00;97662.98;105123;1288;25330;-85
2022/10/01 02:03:24;;;;;;;51.10;46.10;;;;;;;10.03;100.00;97664.75;105092;1287;22521;-83
2022/10/01 02:06:16;;;;;;;51.30;46.20;;;;;;;10.02;100.00;97665.15;105137;1287;22711;-84
2022/10/01 02:08:59;;;;;;;54.10;48.60;;;;;;;10.03;100.00;97669.87;105378;1288;22592;-86
2022/10/01 02:11:36;;;;;;;51.20;46.40;;;;;;;10.05;100.00;97670.58;105292;1287;23933;-86
2022/10/01 02:14:19;;;;;;;47.60;42.70;;;;;;;10.03;100.00;97675.35;105365;1287;25521;-86
2022/10/01 02:17:00;;;;;;;45.50;41.10;;;;;;;10.04;100.00;97674.65;105323;1287;24456;-87
2022/10/01 02:19:51;;;;;;;45.60;41.30;;;;;;;10.03;100.00;97676.23;105170;1287;22563;-87
2022/10/01 02:22:35;;;;;;;48.00;43.10;;;;;;;10.04;100.00;97676.91;105235;1287;22562;-87
2022/10/01 02:25:05;;;;;;;51.50;46.50;;;;;;;10.01;100.00;97674.14;105333;1287;23611;-86
2022/10/01 02:27:40;;;;;;;48.90;44.10;;;;;;;10.02;100.00;97675.59;105085;1287;22710;-87
2022/10/01 02:30:10;;;;;;;48.70;44.10;;;;;;;10.03;100.00;97676.44;105228;1287;22731;-87
2022/10/01 02:32:41;;;;;;;48.90;44.40;;;;;;;10.03;100.00;97674.02;105436;1287;25253;-87
2022/10/01 02:35:14;;;;;;;47.70;43.20;;;;;;;10.01;100.00;97675.98;105391;1287;23330;-86
2022/10/01 02:37:46;;;;;;;47.50;43.00;;;;;;;10.03;100.00;97673.64;105430;1287;22546;-84
2022/10/01 02:40:19;;;;;;;47.60;42.90;;;;;;;10.01;100.00;97673.73;104976;1287;22719;-85
2022/10/01 02:43:01;;;;;;;51.00;46.10;;;;;;;10.02;100.00;97671.83;105394;1287;25334;-86
2022/10/01 02:45:33;;;;;;;53.60;48.20;;;;;;;10.04;100.00;97673.66;105401;1287;22719;-86
2022/10/01 02:48:06;;;;;;;50.70;45.60;;;;;;;10.08;100.00;97674.61;105364;1286;24392;-86
2022/10/01 02:50:50;;;;;;;52.20;47.20;;;;;;;10.08;100.00;97674.55;105357;1287;22699;-87
2022/10/01 02:53:29;;;;;;;54.00;48.70;;;;;;;10.06;100.00;97674.33;105040;1287;25530;-87
2022/10/01 02:55:59;;;;;;;50.20;45.40;;;;;;;10.03;100.00;97676.76;105288;1286;23940;-87
2022/10/01 02:58:28;;;;;;;53.50;48.50;;;;;;;10.04;100.00;97683.70;105234;1287;22550;-88
2022/10/01 03:00:56;;;;;;;53.40;47.60;;;;;;;10.03;100.00;97684.56;105292;1287;22579;-88
2022/10/01 03:03:25;;;;;;;52.70;47.50;;;;;;;10.02;100.00;97685.61;105290;1288;22679;-88
2022/10/01 03:05:53;;;;;;;53.70;48.20;;;;;;;10.04;100.00;97683.09;105380;1287;22709;-87
2022/10/01 03:08:20;;;;;;;53.50;48.20;;;;;;;10.07;100.00;97681.95;105381;1287;24304;-87
2022/10/01 03:10:49;;;;;;;53.10;47.90;;;;;;;10.08;100.00;97682.73;105414;1287;24225;-86
2022/10/01 03:13:18;;;;;;;53.80;48.50;;;;;;;10.08;100.00;97680.38;105337;1287;24419;-84
2022/10/01 03:15:46;;;;;;;54.70;48.80;;;;;;;10.09;100.00;97684.45;105044;1287;22896;-88
2022/10/01 03:18:14;;;;;;;58.20;52.30;;;;;;;10.09;100.00;97682.93;105403;1287;22567;-88
2022/10/01 03:20:42;;;;;;;68.00;59.00;;;;;;;10.07;100.00;97683.56;105422;1287;22570;-84
2022/10/01 03:23:10;;;;;;;77.10;64.40;;;;;;;10.05;100.00;97679.68;105405;1287;22712;-87
2022/10/01 03:25:38;;;;;;;63.40;57.10;;;;;;;10.05;100.00;97675.21;105367;1287;23964;-86
2022/10/01 03:28:06;;;;;;;61.80;55.30;;;;;;;10.06;100.00;97676.16;105298;1287;22553;-88
2022/10/01 03:30:33;;;;;;;60.50;53.60;;;;;;;10.07;100.00;97676.26;104959;1288;25223;-88
2022/10/01 03:33:01;;;;;;;60.30;54.30;;;;;;;10.09;100.00;97669.46;105288;1287;22575;-87
2022/10/01 03:35:31;;;;;;;61.70;55.00;;;;;;;10.15;100.00;97671.08;105262;1287;22765;-86
2022/10/01 03:37:59;;;;;;;57.90;52.00;;;;;;;10.17;100.00;97667.91;105124;1287;24465;-87
2022/10/01 03:40:27;;;;;;;54.90;49.40;;;;;;;10.21;100.00;97665.08;105316;1287;23956;-87
2022/10/01 03:42:55;;;;;;;56.70;51.10;;;;;;;10.22;100.00;97667.64;105326;1286;25662;-88
2022/10/01 03:45:23;;;;;;;54.40;49.10;;;;;;;10.19;100.00;97666.69;105333;1287;24261;-87
2022/10/01 03:47:52;;;;;;;53.40;48.00;;;;;;;10.18;100.00;97668.00;105341;1287;22810;-86
2022/10/01 03:50:20;;;;;;;53.80;48.40;;;;;;;10.16;100.00;97663.24;105329;1286;22588;-88
2022/10/01 03:52:50;;;;;;;50.90;45.70;;;;;;;10.16;100.00;97665.55;105074;1287;24569;-86
2022/10/01 03:55:18;;;;;;;52.00;46.80;;;;;;;10.15;100.00;97665.25;105262;1287;24166;-87
2022/10/01 03:57:46;;;;;;;49.10;44.40;;;;;;;10.10;100.00;97656.48;105348;1287;22574;-87
2022/10/01 04:00:14;;;;;;;52.50;47.10;;;;;;;10.07;100.00;97657.79;105353;1287;26249;-86
2022/10/01 04:02:42;;;;;;;55.80;50.00;;;;;;;9.98;100.00;97654.98;104898;1287;22561;-87
2022/10/01 04:05:11;;;;;;;54.10;48.50;;;;;;;9.91;100.00;97647.65;105277;1287;22598;-87
2022/10/01 04:07:41;;;;;;;51.80;46.60;;;;;;;9.86;100.00;97645.42;105292;1287;22660;-86
2022/10/01 04:10:09;;;;;;;52.70;47.30;;;;;;;9.85;100.00;97643.96;105206;1287;22649;-86
2022/10/01 04:12:37;;;;;;;52.10;46.70;;;;;;;9.83;100.00;97644.85;105266;1287;22561;-85
2022/10/01 04:15:05;;;;;;;52.40;47.50;;;;;;;9.78;100.00;97635.06;105224;1287;22808;-87
2022/10/01 04:17:33;;;;;;;54.70;49.40;;;;;;;9.77;100.00;97631.10;105371;1288;22583;-85
2022/10/01 04:20:01;;;;;;;56.00;50.40;;;;;;;9.79;100.00;97629.42;105398;1287;22778;-85
2022/10/01 04:22:29;;;;;;;57.20;51.30;;;;;;;9.81;100.00;97633.70;105385;1287;23993;-86
2022/10/01 04:24:56;;;;;;;57.90;52.10;;;;;;;9.81;100.00;97637.05;105421;1288;24116;-86
2022/10/01 04:27:25;;;;;;;59.80;53.70;;;;;;;9.81;100.00;97640.16;105364;1287;25367;-86
2022/10/01 04:29:53;;;;;;;56.50;51.00;;;;;;;9.85;100.00;97636.05;105382;1287;22585;-85
2022/10/01 04:32:21;;;;;;;55.40;49.80;;;;;;;9.90;100.00;97634.88;105370;1287;23470;-87
2022/10/01 04:34:51;;;;;;;59.30;53.50;;;;;;;9.93;100.00;97629.84;105179;1288;23008;-86
2022/10/01 04:37:21;;;;;;;58.80;53.10;;;;;;;9.94;100.00;97628.17;105264;1287;22608;-86
2022/10/01 04:39:49;;;;;;;65.30;58.80;;;;;;;9.94;100.00;97631.06;105303;1286;22600;-86
2022/10/01 04:42:18;;;;;;;64.50;57.10;;;;;;;9.94;100.00;97627.30;105372;1287;22666;-85
2022/10/01 04:44:46;;;;;;;63.80;57.00;;;;;;;9.93;100.00;97626.58;105158;1288;25416;-87
2022/10/01 04:47:14;;;;;;;62.90;56.60;;;;;;;9.91;100.00;97624.78;105365;1287;22661;-86
2022/10/01 04:49:42;;;;;;;63.20;56.60;;;;;;;9.95;100.00;97624.00;105384;1286;26349;-86
2022/10/01 04:52:10;;;;;;;70.50;62.00;;;;;;;9.97;100.00;97621.69;105400;1287;23501;-87
2022/10/01 04:54:38;;;;;;;70.20;63.20;;;;;;;10.02;100.00;97624.08;105308;1287;22710;-86
2022/10/01 04:57:06;;;;;;;69.10;62.10;;;;;;;10.06;100.00;97623.52;105285;1287;22570;-86
2022/10/01 04:59:33;;;;;;;73.40;65.70;;;;;;;10.06;100.00;97625.16;105266;1287;24445;-88
2022/10/01 05:02:01;;;;;;;80.40;71.90;;;;;;;10.06;100.00;97625.49;105220;1287;24013;-87
2022/10/01 05:04:29;;;;;;;76.10;68.20;;;;;;;10.07;100.00;97621.55;105210;1287;22883;-87
2022/10/01 05:06:57;;;;;;;73.70;66.10;;;;;;;10.10;100.00;97621.36;105212;1287;25369;-88
2022/10/01 05:09:25;;;;;;;68.50;61.50;;;;;;;10.14;100.00;97625.33;105380;1287;22571;-88
2022/10/01 05:11:53;;;;;;;71.80;62.90;;;;;;;10.17;100.00;97627.14;105161;1287;22590;-85
2022/10/01 05:14:21;;;;;;;70.10;63.30;;;;;;;10.21;100.00;97633.89;105287;1287;24126;-87
2022/10/01 05:16:49;;;;;;;71.20;64.20;;;;;;;10.22;100.00;97635.64;105237;1287;22638;-87
2022/10/01 05:19:17;;;;;;;68.80;61.50;;;;;;;10.24;100.00;97631.68;105314;1287;22584;-85
2022/10/01 05:21:45;;;;;;;68.50;61.60;;;;;;;10.22;100.00;97629.14;105315;1286;25344;-88
2022/10/01 05:24:14;;;;;;;66.10;59.00;;;;;;;10.24;100.00;97629.84;105344;1287;22548;-88
2022/10/01 05:26:42;;;;;;;69.80;59.30;;;;;;;10.25;100.00;97628.32;105369;1287;22578;-86
2022/10/01 05:29:10;;;;;;;69.20;60.40;;;;;;;10.25;100.00;97626.33;105302;1287;22560;-88
2022/10/01 05:31:43;;;;;;;65.50;58.70;;;;;;;10.27;100.00;97625.27;105219;1287;22630;-86
2022/10/01 05:34:11;;;;;;;65.90;59.10;;;;;;;10.27;100.00;97617.69;105360;1287;22724;-88
2022/10/01 05:36:39;;;;;;;64.90;58.20;;;;;;;10.28;100.00;97628.19;105366;1287;22623;-87
2022/10/01 05:39:07;;;;;;;62.40;55.70;;;;;;;10.27;100.00;97630.23;105350;1287;24294;-83
2022/10/01 05:41:35;;;;;;;60.90;54.60;;;;;;;10.29;100.00;97631.77;105344;1288;25369;-86
2022/10/01 05:44:04;;;;;;;62.30;55.90;;;;;;;10.30;100.00;97632.11;105386;1287;22573;-83
2022/10/01 05:46:33;;;;;;;60.40;54.10;;;;;;;10.32;100.00;97634.86;105332;1287;22553;-84
2022/10/01 05:49:00;;;;;;;61.40;54.90;;;;;;;10.32;100.00;97635.41;105372;1287;24427;-85
2022/10/01 05:51:29;;;;;;;60.70;54.50;;;;;;;10.29;100.00;97637.62;105419;1287;22550;-84
2022/10/01 05:54:00;;;;;;;57.90;51.60;;;;;;;10.26;100.00;97639.19;105388;1287;22578;-85
2022/10/01 05:56:28;;;;;;;58.80;52.70;;;;;;;10.26;100.00;97635.14;105454;1287;22547;-83
2022/10/01 05:58:56;;;;;;;60.20;53.90;;;;;;;10.29;100.00;97634.50;104929;1290;22548;-85
2022/10/01 06:01:24;;;;;;;60.10;53.90;;;;;;;10.33;100.00;97634.21;104938;1287;23508;-85
2022/10/01 06:03:52;;;;;;;54.10;48.80;;;;;;;10.36;100.00;97621.59;105264;1287;24274;-84
2022/10/01 06:06:21;;;;;;;49.90;45.00;;;;;;;10.44;100.00;97618.67;105296;1287;24098;-86
2022/10/01 06:08:49;;;;;;;52.90;47.70;;;;;;;10.53;100.00;97623.57;105343;1287;22544;-84
2022/10/01 06:11:20;;;;;;;54.70;49.30;;;;;;;10.58;100.00;97622.77;105213;1287;25259;-83
2022/10/01 06:13:49;;;;;;;52.00;46.80;;;;;;;10.61;100.00;97622.02;105203;1287;22759;-83
2022/10/01 06:16:19;;;;;;;50.50;45.50;;;;;;;10.65;100.00;97623.14;105293;1288;25337;-84
2022/10/01 06:18:48;;;;;;;48.90;44.00;;;;;;;10.70;100.00;97630.55;105269;1288;24358;-83
2022/10/01 06:21:16;;;;;;;46.00;41.60;;;;;;;10.73;100.00;97633.62;105266;1287;24268;-87
2022/10/01 06:23:44;;;;;;;46.50;42.30;;;;;;;10.75;100.00;97630.98;105293;1287;22654;-86
2022/10/01 06:26:12;;;;;;;47.40;43.10;;;;;;;10.81;100.00;97627.66;105185;1287;22553;-85
2022/10/01 06:28:40;;;;;;;47.40;42.80;;;;;;;10.83;100.00;97627.17;105271;1286;25243;-85
2022/10/01 06:31:08;;;;;;;46.80;42.30;;;;;;;10.86;100.00;97624.78;105290;1287;22877;-86
2022/10/01 06:33:36;;;;;;;46.80;42.20;;;;;;;10.91;100.00;97622.13;105068;1289;24498;-86
2022/10/01 06:36:04;;;;;;;49.00;44.20;;;;;;;10.96;100.00;97618.99;105174;1287;25250;-86
2022/10/01 06:38:32;;;;;;;48.80;44.00;;;;;;;11.00;100.00;97617.44;105230;1288;23722;-85
2022/10/01 06:41:02;;;;;;;49.10;44.30;;;;;;;11.06;100.00;97615.38;105291;1288;23438;-85
2022/10/01 06:43:31;;;;;;;49.30;44.80;;;;;;;11.10;100.00;97611.89;104713;1288;24236;-84
2022/10/01 06:46:01;;;;;;;47.50;42.70;;;;;;;11.19;100.00;97617.81;105405;1287;23029;-85
2022/10/01 06:48:31;;;;;;;49.80;45.10;;;;;;;11.23;100.00;97621.69;105428;1287;25396;-84
2022/10/01 06:50:59;;;;;;;53.90;48.80;;;;;;;11.24;100.00;97622.11;105453;1287;22709;-86
2022/10/01 06:53:27;;;;;;;53.20;48.10;;;;;;;11.23;100.00;97619.28;105270;1287;22717;-86
2022/10/01 06:55:56;;;;;;;49.10;44.30;;;;;;;11.23;100.00;97617.55;104703;1288;24405;-85
2022/10/01 06:58:27;;;;;;;51.60;46.40;;;;;;;11.24;100.00;97620.67;105359;1287;22742;-85
2022/10/01 07:01:00;;;;;;;47.90;43.20;;;;;;;11.26;100.00;97619.56;104999;1287;25346;-88
2022/10/01 07:03:29;;;;;;;49.60;44.60;;;;;;;11.29;100.00;97621.45;106424;1287;23001;-83
2022/10/01 07:06:03;;;;;;;52.70;47.70;;;;;;;11.32;100.00;97619.70;106601;1287;22626;-84
2022/10/01 07:08:32;;;;;;;53.00;47.70;;;;;;;11.33;100.00;97619.05;107643;1287;24229;-84
2022/10/01 07:11:01;;;;;;;52.90;47.90;;;;;;;11.34;100.00;97611.15;105556;1287;25352;-87
2022/10/01 07:13:29;;;;;;;51.60;46.30;;;;;;;11.35;100.00;97611.95;105340;1287;22609;-86
2022/10/01 07:15:57;;;;;;;49.70;44.80;;;;;;;11.37;100.00;97607.99;105429;1287;23031;-85
2022/10/01 07:18:25;;;;;;;48.60;43.70;;;;;;;11.43;100.00;97602.34;105449;1287;23988;-86
2022/10/01 07:20:56;;;;;;;48.70;44.00;;;;;;;11.51;100.00;97602.63;105435;1287;22590;-86
2022/10/01 07:23:24;;;;;;;50.90;45.60;;;;;;;11.54;100.00;97603.78;105144;1287;22602;-87
2022/10/01 07:25:52;;;;;;;52.40;47.30;;;;;;;11.57;100.00;97600.78;105402;1287;22569;-86
2022/10/01 07:28:22;;;;;;;47.50;43.00;;;;;;;11.64;100.00;97600.00;105400;1287;25392;-86
2022/10/01 07:31:05;;;;;;;49.00;44.30;;;;;;;11.68;100.00;97600.23;105174;1288;25336;-86
2022/10/01 07:33:33;;;;;;;46.40;42.30;;;;;;;11.72;100.00;97596.57;105409;1287;24277;-86
2022/10/01 07:36:03;;;;;;;47.50;43.10;;;;;;;11.81;100.00;97595.98;105366;1287;22571;-85
2022/10/01 07:38:32;;;;;;;45.90;41.50;;;;;;;11.92;100.00;97597.83;105335;1287;24039;-88
2022/10/01 07:41:02;;;;;;;49.60;44.80;;;;;;;11.97;100.00;97597.74;105392;1287;25259;-87
2022/10/01 07:43:31;;;;;;;49.40;44.70;;;;;;;12.01;100.00;97591.23;105371;1287;25350;-86
2022/10/01 07:46:04;;;;;;;48.90;44.20;;;;;;;12.00;100.00;97587.86;105077;1288;22582;-85
2022/10/01 07:48:32;;;;;;;47.40;42.60;;;;;;;12.03;100.00;97587.91;105214;1287;22596;-85
2022/10/01 07:51:00;;;;;;;48.60;43.90;;;;;;;12.07;100.00;97587.94;105223;1287;24372;-87
2022/10/01 07:53:28;;;;;;;48.30;43.80;;;;;;;12.13;100.00;97587.45;105339;1287;25402;-84
2022/10/01 07:55:59;;;;;;;48.10;43.40;;;;;;;12.16;100.00;97586.59;105359;1287;25253;-86
2022/10/01 07:58:27;;;;;;;48.30;43.20;;;;;;;12.19;100.00;97589.52;105444;1287;22752;-85
2022/10/01 08:00:57;;;;;;;47.70;40.90;;;;;;;12.26;100.00;97592.76;105024;1287;22664;-89
2022/10/01 08:03:26;;;;;;;46.00;41.30;;;;;;;12.32;100.00;97592.86;105033;1287;26728;-85
2022/10/01 08:05:54;;;;;;;44.70;40.20;;;;;;;12.32;100.00;97591.88;105400;1287;22767;-84
2022/10/01 08:08:22;;;;;;;44.10;39.70;;;;;;;12.33;100.00;97590.42;105023;1287;25540;-85
2022/10/01 08:10:50;;;;;;;46.30;41.70;;;;;;;12.33;100.00;97586.98;105017;1287;25528;-83
2022/10/01 08:13:19;;;;;;;44.60;40.30;;;;;;;12.35;100.00;97587.96;105338;1287;22531;-84
2022/10/01 08:15:52;;;;;;;45.70;40.90;;;;;;;12.34;100.00;97585.83;105510;1286;23853;-82
2022/10/01 08:18:22;;;;;;;43.60;39.60;;;;;;;12.36;100.00;97580.52;105343;1287;25263;-83
2022/10/01 08:20:51;;;;;;;42.40;38.50;;;;;;;12.44;100.00;97583.96;104879;1287;25473;-82
2022/10/01 08:23:19;;;;;;;41.70;37.60;;;;;;;12.48;100.00;97577.60;105040;1287;23412;-87
2022/10/01 08:25:47;;;;;;;41.30;37.20;;;;;;;12.56;100.00;97578.61;105421;1287;22637;-84
2022/10/01 08:28:15;;;;;;;40.80;37.10;;;;;;;12.58;100.00;97578.00;105025;1287;22915;-84
2022/10/01 08:30:43;;;;;;;39.40;35.80;;;;;;;12.61;100.00;97577.30;105136;1288;25722;-80
2022/10/01 08:33:12;;;;;;;37.60;34.10;;;;;;;12.63;100.00;97573.71;105472;1287;22715;-86
2022/10/01 08:35:42;;;;;;;38.10;34.70;;;;;;;12.69;100.00;97574.49;105106;1287;25487;-86
2022/10/01 08:38:11;;;;;;;37.90;34.50;;;;;;;12.73;100.00;97573.77;105304;1287;22570;-86
2022/10/01 08:40:47;;;;;;;39.70;35.80;;;;;;;12.79;100.00;97574.55;105749;1287;22689;-85
2022/10/01 08:43:32;;;;;;;38.50;35.00;;;;;;;12.82;100.00;97571.05;105449;1287;22550;-87
2022/10/01 08:46:05;;;;;;;37.20;33.40;;;;;;;12.84;100.00;97570.38;105430;1287;25577;-90
2022/10/01 08:48:46;;;;;;;36.60;33.30;;;;;;;12.90;100.00;97569.05;105955;1286;22545;-87
2022/10/01 08:51:32;;;;;;;37.20;33.70;;;;;;;12.93;100.00;97564.84;105708;1287;25479;-87
2022/10/01 08:54:27;;;;;;;39.60;35.80;;;;;;;13.01;100.00;97561.17;105951;1287;23046;-90
2022/10/01 08:56:59;;;;;;;38.40;34.90;;;;;;;13.12;100.00;97555.47;106294;1287;22643;-88
2022/10/01 08:59:46;;;;;;;38.10;34.50;;;;;;;13.19;100.00;97557.14;106036;1287;22702;-84
2022/10/01 09:02:18;;;;;;;38.20;34.40;;;;;;;13.26;100.00;97549.23;106327;1287;22573;-86
2022/10/01 09:04:49;;;;;;;36.90;33.40;;;;;;;13.29;100.00;97549.80;108378;1287;22883;-84
2022/10/01 09:10:39;;;;;;;39.60;35.70;;;;;;;13.20;100.00;97548.92;108355;1287;22561;-84
2022/10/01 09:13:47;;;;;;;39.60;35.90;;;;;;;13.13;100.00;97548.95;108459;1284;22578;-87
2022/10/01 09:16:30;;;;;;;39.60;35.80;;;;;;;13.17;100.00;97544.76;107863;1287;24222;-87
2022/10/01 09:19:37;;;;;;;38.40;33.40;;;;;;;13.26;100.00;97534.30;105890;1287;25368;-85
2022/10/01 09:22:17;;;;;;;40.10;36.30;;;;;;;13.38;100.00;97525.13;105798;1290;24174;-84
2022/10/01 09:25:05;;;;;;;38.50;34.70;;;;;;;13.55;100.00;97522.90;105796;1290;22670;-87
2022/10/01 09:27:37;;;;;;;37.70;34.10;;;;;;;13.72;100.00;97518.58;105844;1291;25401;-84
2022/10/01 09:30:17;;;;;;;35.50;32.30;;;;;;;13.82;100.00;97519.52;106650;1290;22589;-84
2022/10/01 09:32:50;;;;;;;37.70;34.20;;;;;;;13.94;100.00;97523.48;106366;1290;22582;-87
2022/10/01 09:35:43;;;;;;;37.20;33.70;;;;;;;13.95;99.99;97531.99;106350;1290;25699;-86
2022/10/01 09:38:20;;;;;;;36.10;32.70;;;;;;;13.89;99.99;97534.64;105462;1290;25241;-85
2022/10/01 09:40:54;;;;;;;36.70;33.20;;;;;;;13.90;100.00;97530.18;106329;1290;25367;-84
2022/10/01 09:43:31;;;;;;;40.60;36.60;;;;;;;13.96;100.00;97528.61;106492;1290;22630;-86
2022/10/01 09:46:03;;;;;;;38.40;34.60;;;;;;;14.01;100.00;97528.95;106633;1291;22664;-84
2022/10/01 09:48:40;;;;;;;35.60;32.20;;;;;;;14.03;100.00;97530.12;106554;1290;22560;-87
2022/10/01 09:51:30;;;;;;;41.00;36.90;;;;;;;14.08;99.92;97533.17;106634;1290;22572;-85
2022/10/01 09:54:22;;;;;;;41.70;37.60;;;;;;;14.11;99.89;97529.43;106915;1287;22981;-83
2022/10/01 09:56:59;;;;;;;34.50;31.10;;;;;;;14.14;99.69;97528.58;106825;1287;148848;-85
2022/10/01 10:00:03;;;;;;;34.40;31.20;;;;;;;14.17;100.00;97521.96;106661;1287;25400;-84
2022/10/01 10:02:37;;;;;;;31.40;28.50;;;;;;;14.19;99.42;97523.22;106261;1287;22822;-86
2022/10/01 10:05:26;;;;;;;33.80;30.50;;;;;;;14.16;98.84;97521.02;106476;1287;22544;-86
2022/10/01 10:08:00;;;;;;;32.10;29.30;;;;;;;14.13;98.99;97519.95;106617;1286;22547;-86
2022/10/01 10:10:34;;;;;;;33.70;30.40;;;;;;;14.12;98.81;97517.68;106259;1287;24261;-86
2022/10/01 10:13:06;;;;;;;33.10;30.00;;;;;;;14.11;98.76;97511.77;106322;1287;23960;-86
2022/10/01 10:15:35;;;;;;;33.70;30.30;;;;;;;14.06;98.16;97509.26;106579;1287;25259;-86
2022/10/01 10:18:10;;;;;;;29.30;26.60;;;;;;;14.03;98.15;97508.98;106607;1287;23161;-86
2022/10/01 10:20:42;;;;;;;31.40;28.20;;;;;;;14.00;97.87;97509.74;106116;1287;24332;-87
2022/10/01 10:23:21;;;;;;;30.50;27.40;;;;;;;14.02;98.18;97511.90;105490;1288;23450;-85
2022/10/01 10:26:43;;;;;;;31.10;28.40;;;;;;;14.04;98.24;97502.67;105133;1287;23557;-88
2022/10/01 10:29:26;;;;;;;30.80;28.00;;;;;;;13.99;98.06;97492.60;105409;1288;25603;-87
2022/10/01 10:31:54;;;;;;;29.60;26.90;;;;;;;13.98;97.76;97490.10;105366;1287;22578;-87
2022/10/01 10:34:41;;;;;;;28.00;25.50;;;;;;;13.96;97.61;97481.13;105370;1287;26534;-86
2022/10/01 10:37:18;;;;;;;27.40;24.80;;;;;;;13.93;97.42;97478.77;105009;1288;22710;-87
2022/10/01 10:39:52;;;;;;;26.10;23.80;;;;;;;13.94;97.60;97475.64;105471;1288;22914;-87
2022/10/01 10:42:24;;;;;;;29.10;26.20;;;;;;;13.98;97.81;97465.31;105478;1287;22645;-87
2022/10/01 10:44:55;;;;;;;29.00;26.40;;;;;;;14.01;97.87;97462.64;105464;1287;24278;-87
2022/10/01 10:47:27;;;;;;;26.10;23.70;;;;;;;14.07;97.79;97453.66;105487;1287;22745;-87
2022/10/01 10:49:59;;;;;;;24.10;20.30;;;;;;;14.12;97.77;97450.17;105492;1287;22550;-86
2022/10/01 10:52:35;;;;;;;23.60;21.30;;;;;;;14.18;97.43;97441.59;105539;1287;22565;-86
2022/10/01 10:55:25;;;;;;;23.30;21.00;;;;;;;14.24;97.19;97438.30;105425;1287;23242;-88
2022/10/01 10:57:53;;;;;;;25.40;23.10;;;;;;;14.22;96.87;97434.75;105498;1286;25287;-86
2022/10/01 11:00:25;;;;;;;24.60;22.30;;;;;;;14.18;96.73;97427.56;105024;1287;24120;-86
2022/10/01 11:02:58;;;;;;;23.00;20.90;;;;;;;14.12;96.33;97423.95;105471;1287;26176;-87
2022/10/01 11:05:34;;;;;;;22.60;20.50;;;;;;;14.10;96.52;97413.42;105510;1287;25532;-87
2022/10/01 11:08:04;;;;;;;21.90;19.60;;;;;;;14.09;96.38;97403.48;105426;1287;24226;-86
2022/10/01 11:10:35;;;;;;;23.80;21.60;;;;;;;14.07;96.15;97399.86;105456;1287;22668;-88
2022/10/01 11:13:32;;;;;;;24.80;22.40;;;;;;;14.07;96.18;97400.02;105480;1288;22626;-88
2022/10/01 11:16:23;;;;;;;24.40;21.80;;;;;;;14.03;96.00;97397.85;105467;1287;26000;-88
2022/10/01 11:18:57;;;;;;;24.50;21.70;;;;;;;14.00;95.94;97390.34;105425;1288;22552;-84
2022/10/01 11:21:40;;;;;;;23.20;21.10;;;;;;;14.00;95.70;97381.73;105388;1287;22705;-86
2022/10/01 11:24:53;;;;;;;23.30;20.80;;;;;;;14.01;95.50;97379.08;105314;1287;22771;-82
2022/10/01 11:27:36;;;;;;;24.60;22.20;;;;;;;14.11;96.06;97374.06;104364;1297;23815;-83
2022/10/01 11:30:25;;;;;;;24.50;22.30;;;;;;;14.24;96.02;97365.42;104286;1297;24402;-82
2022/10/01 11:33:25;;;;;;;26.30;23.70;;;;;;;14.31;95.73;97366.54;104306;1296;22572;-82
2022/10/01 11:36:01;;;;;;;25.60;23.20;;;;;;;14.38;95.82;97365.75;104310;1296;25650;-82